Weather History for Mount Carmel, IL

Change the Weather History Date:

Tuesday, February 19, 2013

  Actual Average (KLWV) Record (KLWV)
Temperature  
Mean Temperature 34 °F 37 °F  
Max Temperature 39 °F 45 °F 62 °F (1992)
Min Temperature 28 °F 28 °F -5 °F (1993)
Degree Days  
Heating Degree Days 32 28  
Month to date heating degree days 585  
Since 1 July heating degree days 3436  
Cooling Degree Days 0 0  
Month to date cooling degree days 0  
Year to date cooling degree days 0  
Moisture  
Dew Point 24 °F    
Average Humidity 72    
Maximum Humidity 87    
Minimum Humidity 64    
Precipitation  
Precipitation 0.02 in 0.07 in 0.87 in (1974)
Month to date precipitation 1.44  
Year to date precipitation 3.82  
Sea Level Pressure  
Sea Level Pressure 30.06 in    
Wind  
Wind Speed 19 mph (WNW)    
Max Wind Speed 25 mph    
Max Gust Speed 37 mph    
Visibility 10 miles    
Events      
T = Trace of Precipitation, MM = Missing Value Source: NWS Daily Summary

Daily Weather History Graph

Daily Weather History Graph

Search for Another Location

Airport:

Trip Planner

Search our weather history database for the weather conditions in past years. The results will help you decide how hot, cold, wet, or windy it might be!

Date:

Astronomy

Feb. 19, 2013 Rise Set
Actual Time 6:36 AM CST 5:33 PM CST
Civil Twilight 6:09 AM CST 6:00 PM CST
Nautical Twilight 5:38 AM CST 6:31 PM CST
Astronomical Twilight 5:07 AM CST 7:02 PM CST
Moon 12:06 PM CST (2/19) 2:05 AM CST (2/19)
Length of Visible Light 11h 51m
Length of Day
10h 57m
Waxing Gibbous, 67% of the Moon is Illuminated
Feb 19
Waxing Gibbous
Feb 25
Full
Mar 4
Last Quarter
Mar 11
New
Mar 19
First Quarter

Hourly Weather History & Observations

Time (CST) Temp. Windchill Dew Point Humidity Pressure Visibility Wind Dir Wind Speed Gust Speed Precip Events Conditions
12:15 AM 39.2 °F 29.8 °F 35.6 °F 87% 29.81 in 10.0 mi WNW 18.4 mph 28.8 mph N/A   Overcast
12:35 AM 39.2 °F 30.2 °F 33.8 °F 81% 29.81 in 10.0 mi WNW 17.3 mph 25.3 mph 0.01 in   Overcast
12:55 AM 37.4 °F 26.6 °F 33.8 °F 87% 29.82 in 10.0 mi WNW 21.9 mph 29.9 mph 0.01 in   Overcast
1:15 AM 37.4 °F 26.6 °F 33.8 °F 87% 29.83 in 10.0 mi WNW 21.9 mph 28.8 mph N/A   Overcast
1:35 AM 37.4 °F 25.9 °F 32.0 °F 81% 29.84 in 10.0 mi West 25.3 mph 34.5 mph 0.01 in   Overcast
1:55 AM 37.4 °F 26.6 °F 32.0 °F 81% 29.85 in 10.0 mi West 21.9 mph 36.8 mph 0.01 in   Overcast
2:15 AM 35.6 °F 24.0 °F 30.2 °F 81% 29.87 in 10.0 mi West 23.0 mph 31.1 mph N/A   Overcast
2:35 AM 35.6 °F 24.0 °F 30.2 °F 81% 29.87 in 10.0 mi West 23.0 mph 28.8 mph N/A   Overcast
2:55 AM 35.6 °F 25.9 °F 30.2 °F 81% 29.87 in 10.0 mi WNW 16.1 mph 24.2 mph N/A   Overcast
3:15 AM 35.6 °F 24.5 °F 30.2 °F 81% 29.88 in 10.0 mi West 20.7 mph 25.3 mph N/A   Overcast
3:35 AM 33.8 °F 22.8 °F 28.4 °F 81% 29.89 in 10.0 mi WNW 18.4 mph 27.6 mph N/A   Overcast
3:55 AM 33.8 °F 22.8 °F 28.4 °F 81% 29.89 in 10.0 mi West 18.4 mph 27.6 mph N/A   Overcast
4:15 AM 33.8 °F 23.5 °F 28.4 °F 81% 29.89 in 10.0 mi West 16.1 mph - N/A   Overcast
4:35 AM 33.8 °F 24.3 °F 28.4 °F 81% 29.90 in 10.0 mi WNW 13.8 mph 18.4 mph N/A   Overcast
4:55 AM 33.8 °F 23.5 °F 28.4 °F 81% 29.92 in 10.0 mi WNW 16.1 mph - N/A   Mostly Cloudy
5:15 AM 33.8 °F 24.3 °F 26.6 °F 75% 29.93 in 10.0 mi WNW 13.8 mph - N/A   Mostly Cloudy
5:55 AM 32.0 °F 19.5 °F 26.6 °F 80% 29.94 in 10.0 mi West 21.9 mph 32.2 mph N/A   Overcast
6:15 AM 32.0 °F 21.6 °F 26.6 °F 80% 29.95 in 10.0 mi West 15.0 mph - N/A   Overcast
6:35 AM 32.0 °F 20.8 °F 24.8 °F 75% 29.96 in 10.0 mi West 17.3 mph 28.8 mph N/A   Overcast
6:55 AM 32.0 °F 19.8 °F 24.8 °F 75% 29.97 in 10.0 mi West 20.7 mph 28.8 mph N/A   Overcast
7:15 AM 32.0 °F 19.8 °F 24.8 °F 75% 29.98 in 10.0 mi West 20.7 mph 26.5 mph N/A   Overcast
7:35 AM 32.0 °F 19.5 °F 24.8 °F 75% 29.99 in 10.0 mi West 21.9 mph - N/A   Overcast
7:55 AM 32.0 °F 20.1 °F 24.8 °F 75% 30.00 in 10.0 mi West 19.6 mph - N/A   Overcast
8:15 AM 32.0 °F 19.5 °F 23.0 °F 69% 30.01 in 10.0 mi West 21.9 mph 32.2 mph N/A   Overcast
8:35 AM 32.0 °F 18.6 °F 23.0 °F 69% 30.02 in 10.0 mi West 25.3 mph 32.2 mph N/A   Mostly Cloudy
8:55 AM 32.0 °F 20.1 °F 23.0 °F 69% 30.02 in 10.0 mi West 19.6 mph 31.1 mph N/A   Scattered Clouds
9:35 AM 32.0 °F 19.2 °F 23.0 °F 69% 30.03 in 10.0 mi West 23.0 mph 32.2 mph N/A   Overcast
9:55 AM 32.0 °F 20.5 °F 23.0 °F 69% 30.04 in 10.0 mi WNW 18.4 mph - N/A   Overcast
10:15 AM 32.0 °F 19.2 °F 23.0 °F 69% 30.05 in 10.0 mi West 23.0 mph 27.6 mph N/A   Mostly Cloudy
10:35 AM 32.0 °F 19.2 °F 23.0 °F 69% 30.06 in 10.0 mi WNW 23.0 mph 29.9 mph N/A   Mostly Cloudy
10:55 AM 32.0 °F 19.8 °F 23.0 °F 69% 30.06 in 10.0 mi West 20.7 mph 27.6 mph N/A   Mostly Cloudy
11:15 AM 33.8 °F 21.3 °F 24.8 °F 70% 30.06 in 10.0 mi West 24.2 mph - N/A   Mostly Cloudy
11:35 AM 33.8 °F 22.2 °F 26.6 °F 75% 30.07 in 10.0 mi West 20.7 mph 27.6 mph N/A   Overcast
11:55 AM 32.0 °F 18.6 °F 24.8 °F 75% 30.07 in 10.0 mi West 25.3 mph 31.1 mph N/A   Overcast
12:15 PM 32.0 °F 19.8 °F 23.0 °F 69% 30.08 in 10.0 mi West 20.7 mph 32.2 mph N/A   Mostly Cloudy
12:35 PM 32.0 °F 18.9 °F 24.8 °F 75% 30.09 in 10.0 mi West 24.2 mph 29.9 mph N/A   Mostly Cloudy
12:55 PM 32.0 °F 18.9 °F 23.0 °F 69% 30.09 in 10.0 mi West 24.2 mph 28.8 mph N/A   Mostly Cloudy
1:15 PM 32.0 °F 18.9 °F 23.0 °F 69% 30.09 in 10.0 mi West 24.2 mph 28.8 mph N/A   Mostly Cloudy
1:35 PM 33.8 °F 21.6 °F 23.0 °F 65% 30.09 in 10.0 mi WNW 23.0 mph 28.8 mph N/A   Overcast
1:55 PM 32.0 °F 20.1 °F 23.0 °F 69% 30.10 in 10.0 mi WNW 19.6 mph 25.3 mph N/A   Overcast
2:15 PM 33.8 °F 21.9 °F 23.0 °F 65% 30.10 in 10.0 mi WNW 21.9 mph 28.8 mph N/A   Overcast
2:35 PM 33.8 °F 21.6 °F 23.0 °F 65% 30.11 in 10.0 mi West 23.0 mph 29.9 mph N/A   Overcast
2:55 PM 33.8 °F 23.9 °F 24.8 °F 70% 30.12 in 10.0 mi WNW 15.0 mph - N/A   Mostly Cloudy
3:15 PM 33.8 °F 23.2 °F 23.0 °F 65% 30.12 in 10.0 mi WNW 17.3 mph - N/A   Mostly Cloudy
3:35 PM 33.8 °F 23.2 °F 23.0 °F 65% 30.13 in 10.0 mi WNW 17.3 mph 25.3 mph N/A   Mostly Cloudy
3:55 PM 33.8 °F 22.2 °F 23.0 °F 65% 30.14 in 10.0 mi WNW 20.7 mph - N/A   Mostly Cloudy
4:15 PM 32.0 °F 22.1 °F 23.0 °F 69% 30.15 in 10.0 mi WNW 13.8 mph 20.7 mph N/A   Mostly Cloudy
4:35 PM 32.0 °F 20.5 °F 23.0 °F 69% 30.16 in 10.0 mi NW 18.4 mph 24.2 mph N/A   Overcast
4:55 PM 32.0 °F 21.2 °F 23.0 °F 69% 30.16 in 10.0 mi NW 16.1 mph - N/A   Mostly Cloudy
5:15 PM 32.0 °F 21.2 °F 21.2 °F 64% 30.17 in 10.0 mi NW 16.1 mph 19.6 mph N/A   Mostly Cloudy
6:35 PM 30.2 °F 19.8 °F 21.2 °F 69% 30.20 in 10.0 mi NW 13.8 mph - N/A   Clear
6:55 PM 28.4 °F 17.0 °F 19.4 °F 69% 30.21 in 10.0 mi NW 15.0 mph - N/A   Clear
7:15 PM 28.4 °F 18.0 °F 19.4 °F 69% 30.21 in 10.0 mi NW 12.7 mph - N/A   Clear
7:35 PM 28.4 °F 19.1 °F 19.4 °F 69% 30.21 in 10.0 mi NW 10.4 mph 16.1 mph N/A   Clear
7:55 PM 28.4 °F 18.5 °F 19.4 °F 69% 30.21 in 10.0 mi WNW 11.5 mph - N/A   Clear
8:15 PM 28.4 °F 19.1 °F 19.4 °F 69% 30.22 in 10.0 mi NW 10.4 mph 16.1 mph N/A   Clear
8:35 PM 28.4 °F 19.1 °F 19.4 °F 69% 30.22 in 10.0 mi WNW 10.4 mph - N/A   Clear
8:55 PM 28.4 °F 19.1 °F 19.4 °F 69% 30.22 in 10.0 mi WNW 10.4 mph - N/A   Clear
9:15 PM 28.4 °F 19.7 °F 19.4 °F 69% 30.23 in 10.0 mi WNW 9.2 mph - N/A   Clear
9:55 PM 28.4 °F 19.7 °F 19.4 °F 69% 30.25 in 10.0 mi WNW 9.2 mph - N/A   Clear
10:15 PM 28.4 °F 18.0 °F 19.4 °F 69% 30.25 in 10.0 mi WNW 12.7 mph - N/A   Clear
10:35 PM 28.4 °F 17.5 °F 19.4 °F 69% 30.25 in 10.0 mi WNW 13.8 mph 18.4 mph N/A   Clear
10:55 PM 28.4 °F 18.5 °F 17.6 °F 64% 30.25 in 10.0 mi WNW 11.5 mph - N/A   Clear
11:15 PM 28.4 °F 18.0 °F 17.6 °F 64% 30.25 in 10.0 mi WNW 12.7 mph - N/A   Clear
11:35 PM 28.4 °F 18.0 °F 17.6 °F 64% 30.25 in 10.0 mi WNW 12.7 mph - N/A   Clear
11:55 PM 28.4 °F 18.0 °F 17.6 °F 64% 30.26 in 10.0 mi WNW 12.7 mph - N/A   Clear